sensor_id;sensor_type;location;lat;lon;timestamp;pressure;altitude;pressure_sealevel;temperature;humidity
55217;BME280;41086;46.736;15.666;2022-08-03T00:01:48;98660.13;;;17.26;nan
55217;BME280;41086;46.736;15.666;2022-08-03T00:04:15;98661.03;;;17.55;nan
55217;BME280;41086;46.736;15.666;2022-08-03T00:06:42;98675.81;;;17.68;nan
55217;BME280;41086;46.736;15.666;2022-08-03T00:09:09;98674.31;;;17.56;nan
55217;BME280;41086;46.736;15.666;2022-08-03T00:11:37;98671.38;;;17.40;nan
55217;BME280;41086;46.736;15.666;2022-08-03T00:14:05;98672.47;;;17.47;nan
55217;BME280;41086;46.736;15.666;2022-08-03T00:16:32;98674.31;;;17.46;nan
55217;BME280;41086;46.736;15.666;2022-08-03T00:18:59;98668.53;;;17.41;nan
55217;BME280;41086;46.736;15.666;2022-08-03T00:21:27;98677.59;;;17.31;nan
55217;BME280;41086;46.736;15.666;2022-08-03T00:23:54;98677.63;;;17.21;nan
55217;BME280;41086;46.736;15.666;2022-08-03T00:26:21;98680.28;;;17.11;nan
55217;BME280;41086;46.736;15.666;2022-08-03T00:28:48;98683.38;;;17.06;nan
55217;BME280;41086;46.736;15.666;2022-08-03T00:31:15;98668.72;;;17.01;nan
55217;BME280;41086;46.736;15.666;2022-08-03T00:33:45;98661.53;;;17.11;nan
55217;BME280;41086;46.736;15.666;2022-08-03T00:36:24;98660.13;;;17.17;nan
55217;BME280;41086;46.736;15.666;2022-08-03T00:38:51;98680.56;;;17.18;nan
55217;BME280;41086;46.736;15.666;2022-08-03T00:41:18;98693.81;;;17.10;nan
55217;BME280;41086;46.736;15.666;2022-08-03T00:43:45;98694.50;;;17.12;nan
55217;BME280;41086;46.736;15.666;2022-08-03T00:46:13;98696.63;;;17.08;nan
55217;BME280;41086;46.736;15.666;2022-08-03T00:48:44;98704.09;;;16.95;nan
55217;BME280;41086;46.736;15.666;2022-08-03T00:51:11;98696.50;;;16.80;nan
55217;BME280;41086;46.736;15.666;2022-08-03T00:53:38;98687.97;;;16.66;nan
55217;BME280;41086;46.736;15.666;2022-08-03T00:56:05;98678.25;;;16.74;nan
55217;BME280;41086;46.736;15.666;2022-08-03T00:58:32;98656.78;;;16.86;nan
55217;BME280;41086;46.736;15.666;2022-08-03T01:00:59;98654.66;;;16.89;nan
55217;BME280;41086;46.736;15.666;2022-08-03T01:03:26;98673.63;;;16.67;nan
55217;BME280;41086;46.736;15.666;2022-08-03T01:06:33;98664.03;;;16.54;nan
55217;BME280;41086;46.736;15.666;2022-08-03T01:12:14;98662.72;;;16.39;nan
55217;BME280;41086;46.736;15.666;2022-08-03T01:14:56;98661.16;;;16.36;nan
55217;BME280;41086;46.736;15.666;2022-08-03T01:17:36;98653.84;;;16.38;nan
55217;BME280;41086;46.736;15.666;2022-08-03T01:20:09;98647.78;;;16.36;nan
55217;BME280;41086;46.736;15.666;2022-08-03T01:23:02;98647.66;;;16.38;nan
55217;BME280;41086;46.736;15.666;2022-08-03T01:31:23;98656.59;;;16.08;nan
55217;BME280;41086;46.736;15.666;2022-08-03T01:33:56;98656.16;;;16.03;nan
55217;BME280;41086;46.736;15.666;2022-08-03T01:36:30;98657.00;;;16.03;nan
55217;BME280;41086;46.736;15.666;2022-08-03T01:39:01;98658.00;;;16.02;nan
55217;BME280;41086;46.736;15.666;2022-08-03T01:41:31;98651.09;;;16.00;nan
55217;BME280;41086;46.736;15.666;2022-08-03T01:44:00;98640.00;;;16.04;nan
55217;BME280;41086;46.736;15.666;2022-08-03T01:46:48;98646.19;;;16.14;nan
55217;BME280;41086;46.736;15.666;2022-08-03T01:49:17;98631.97;;;16.14;nan
55217;BME280;41086;46.736;15.666;2022-08-03T01:51:46;98641.72;;;16.25;nan
55217;BME280;41086;46.736;15.666;2022-08-03T01:54:29;98648.34;;;16.30;nan
55217;BME280;41086;46.736;15.666;2022-08-03T01:56:57;98647.66;;;16.38;nan
55217;BME280;41086;46.736;15.666;2022-08-03T01:59:25;98646.66;;;16.39;nan
55217;BME280;41086;46.736;15.666;2022-08-03T02:01:54;98641.47;;;16.37;nan
55217;BME280;41086;46.736;15.666;2022-08-03T02:04:42;98640.44;;;16.19;nan
55217;BME280;41086;46.736;15.666;2022-08-03T02:07:11;98644.78;;;16.10;nan
55217;BME280;41086;46.736;15.666;2022-08-03T02:09:40;98645.59;;;16.01;nan
55217;BME280;41086;46.736;15.666;2022-08-03T02:12:11;98628.00;;;15.99;nan
55217;BME280;41086;46.736;15.666;2022-08-03T02:14:40;98633.34;;;15.99;nan
55217;BME280;41086;46.736;15.666;2022-08-03T02:17:09;98619.44;;;16.05;nan
55217;BME280;41086;46.736;15.666;2022-08-03T02:19:36;98617.63;;;16.05;nan
55217;BME280;41086;46.736;15.666;2022-08-03T02:22:07;98616.47;;;15.98;nan
55217;BME280;41086;46.736;15.666;2022-08-03T02:24:36;98606.81;;;16.07;nan
55217;BME280;41086;46.736;15.666;2022-08-03T02:27:07;98608.91;;;16.13;nan
55217;BME280;41086;46.736;15.666;2022-08-03T02:29:38;98609.34;;;16.18;nan
55217;BME280;41086;46.736;15.666;2022-08-03T02:32:13;98618.06;;;16.20;nan
55217;BME280;41086;46.736;15.666;2022-08-03T02:34:46;98613.31;;;16.24;nan
55217;BME280;41086;46.736;15.666;2022-08-03T02:37:17;98616.53;;;16.27;nan
55217;BME280;41086;46.736;15.666;2022-08-03T02:39:46;98618.66;;;16.24;nan
55217;BME280;41086;46.736;15.666;2022-08-03T02:42:14;98622.84;;;16.16;nan
55217;BME280;41086;46.736;15.666;2022-08-03T02:44:44;98631.81;;;16.06;nan
55217;BME280;41086;46.736;15.666;2022-08-03T02:47:14;98636.00;;;15.99;nan
55217;BME280;41086;46.736;15.666;2022-08-03T02:49:43;98636.84;;;15.89;nan
55217;BME280;41086;46.736;15.666;2022-08-03T02:52:19;98633.00;;;15.82;nan
55217;BME280;41086;46.736;15.666;2022-08-03T02:54:48;98633.28;;;15.79;nan
55217;BME280;41086;46.736;15.666;2022-08-03T02:57:17;98632.88;;;15.63;nan
55217;BME280;41086;46.736;15.666;2022-08-03T02:59:46;98641.75;;;15.63;nan
55217;BME280;41086;46.736;15.666;2022-08-03T03:02:14;98637.28;;;15.64;nan
55217;BME280;41086;46.736;15.666;2022-08-03T03:04:42;98634.16;;;15.59;nan
55217;BME280;41086;46.736;15.666;2022-08-03T03:07:30;98633.16;;;15.60;nan
55217;BME280;41086;46.736;15.666;2022-08-03T03:09:58;98642.56;;;15.54;nan
55217;BME280;41086;46.736;15.666;2022-08-03T03:12:26;98651.81;;;15.50;nan
55217;BME280;41086;46.736;15.666;2022-08-03T03:14:53;98645.88;;;15.46;nan
55217;BME280;41086;46.736;15.666;2022-08-03T03:17:20;98644.47;;;15.42;nan
55217;BME280;41086;46.736;15.666;2022-08-03T03:19:48;98632.22;;;15.40;nan
55217;BME280;41086;46.736;15.666;2022-08-03T03:22:17;98636.00;;;15.37;nan
55217;BME280;41086;46.736;15.666;2022-08-03T03:24:45;98634.56;;;15.33;nan
55217;BME280;41086;46.736;15.666;2022-08-03T03:27:13;98638.22;;;15.32;nan
55217;BME280;41086;46.736;15.666;2022-08-03T03:29:42;98637.09;;;15.35;nan
55217;BME280;41086;46.736;15.666;2022-08-03T03:32:09;98645.84;;;15.37;nan
55217;BME280;41086;46.736;15.666;2022-08-03T03:34:36;98647.91;;;15.33;nan
55217;BME280;41086;46.736;15.666;2022-08-03T03:37:03;98645.22;;;15.33;nan
55217;BME280;41086;46.736;15.666;2022-08-03T03:39:30;98647.22;;;15.31;nan
55217;BME280;41086;46.736;15.666;2022-08-03T03:41:59;98655.47;;;15.28;nan
55217;BME280;41086;46.736;15.666;2022-08-03T03:44:30;98656.72;;;15.24;nan
55217;BME280;41086;46.736;15.666;2022-08-03T03:46:57;98651.06;;;15.17;nan
55217;BME280;41086;46.736;15.666;2022-08-03T03:49:24;98653.97;;;15.14;nan
55217;BME280;41086;46.736;15.666;2022-08-03T03:51:53;98646.94;;;15.13;nan
55217;BME280;41086;46.736;15.666;2022-08-03T03:54:20;98646.41;;;15.19;nan
55217;BME280;41086;46.736;15.666;2022-08-03T03:56:47;98646.69;;;15.16;nan
55217;BME280;41086;46.736;15.666;2022-08-03T03:59:14;98663.78;;;15.14;nan
55217;BME280;41086;46.736;15.666;2022-08-03T04:01:41;98667.00;;;15.07;nan
55217;BME280;41086;46.736;15.666;2022-08-03T04:04:08;98663.75;;;15.04;nan
55217;BME280;41086;46.736;15.666;2022-08-03T04:06:53;98658.84;;;14.88;nan
55217;BME280;41086;46.736;15.666;2022-08-03T04:09:40;98675.56;;;14.90;nan
55217;BME280;41086;46.736;15.666;2022-08-03T04:12:34;98666.22;;;14.96;nan
55217;BME280;41086;46.736;15.666;2022-08-03T04:15:03;98671.56;;;14.96;nan
55217;BME280;41086;46.736;15.666;2022-08-03T04:17:31;98675.06;;;14.96;nan
55217;BME280;41086;46.736;15.666;2022-08-03T04:19:58;98674.78;;;14.99;nan
55217;BME280;41086;46.736;15.666;2022-08-03T04:22:28;98675.53;;;15.01;nan
55217;BME280;41086;46.736;15.666;2022-08-03T04:25:03;98683.28;;;15.04;nan
55217;BME280;41086;46.736;15.666;2022-08-03T04:27:35;98688.47;;;15.06;nan
55217;BME280;41086;46.736;15.666;2022-08-03T04:30:04;98688.59;;;15.04;nan
55217;BME280;41086;46.736;15.666;2022-08-03T04:32:32;98692.59;;;15.10;nan
55217;BME280;41086;46.736;15.666;2022-08-03T04:35:01;98689.53;;;15.15;nan
55217;BME280;41086;46.736;15.666;2022-08-03T04:40:00;98697.97;;;15.20;nan
55217;BME280;41086;46.736;15.666;2022-08-03T04:42:29;98702.34;;;15.21;nan
55217;BME280;41086;46.736;15.666;2022-08-03T04:44:57;98699.44;;;15.24;nan
55217;BME280;41086;46.736;15.666;2022-08-03T04:47:27;98694.41;;;15.30;nan
55217;BME280;41086;46.736;15.666;2022-08-03T04:49:54;98682.97;;;15.40;nan
55217;BME280;41086;46.736;15.666;2022-08-03T04:52:21;98681.06;;;15.51;nan
55217;BME280;41086;46.736;15.666;2022-08-03T04:54:48;98687.56;;;15.59;nan
55217;BME280;41086;46.736;15.666;2022-08-03T04:57:17;98684.84;;;15.70;nan
55217;BME280;41086;46.736;15.666;2022-08-03T04:59:52;98687.72;;;15.78;nan
55217;BME280;41086;46.736;15.666;2022-08-03T05:02:28;98696.63;;;15.88;nan
55217;BME280;41086;46.736;15.666;2022-08-03T05:04:55;98696.34;;;15.91;nan
55217;BME280;41086;46.736;15.666;2022-08-03T05:07:22;98695.81;;;15.98;nan
55217;BME280;41086;46.736;15.666;2022-08-03T05:09:51;98701.31;;;16.06;nan
55217;BME280;41086;46.736;15.666;2022-08-03T05:12:27;98706.56;;;16.17;nan
55217;BME280;41086;46.736;15.666;2022-08-03T05:14:58;98709.13;;;16.28;nan
55217;BME280;41086;46.736;15.666;2022-08-03T05:17:25;98705.50;;;16.39;nan
55217;BME280;41086;46.736;15.666;2022-08-03T05:19:52;98715.25;;;16.50;nan
55217;BME280;41086;46.736;15.666;2022-08-03T05:22:20;98707.69;;;16.65;nan
55217;BME280;41086;46.736;15.666;2022-08-03T05:24:46;98713.34;;;16.71;nan
55217;BME280;41086;46.736;15.666;2022-08-03T05:27:13;98721.84;;;16.86;nan
55217;BME280;41086;46.736;15.666;2022-08-03T05:29:45;98728.03;;;16.96;nan
55217;BME280;41086;46.736;15.666;2022-08-03T05:32:13;98742.72;;;17.12;nan
55217;BME280;41086;46.736;15.666;2022-08-03T05:34:40;98749.22;;;17.19;nan
55217;BME280;41086;46.736;15.666;2022-08-03T05:37:07;98746.41;;;17.40;nan
55217;BME280;41086;46.736;15.666;2022-08-03T05:39:34;98751.03;;;17.38;nan
55217;BME280;41086;46.736;15.666;2022-08-03T05:42:01;98749.59;;;17.53;nan
55217;BME280;41086;46.736;15.666;2022-08-03T05:44:28;98754.53;;;17.67;nan
55217;BME280;41086;46.736;15.666;2022-08-03T05:46:57;98750.28;;;17.75;nan
55217;BME280;41086;46.736;15.666;2022-08-03T05:49:24;98755.97;;;17.81;nan
55217;BME280;41086;46.736;15.666;2022-08-03T05:51:50;98757.47;;;17.93;nan
55217;BME280;41086;46.736;15.666;2022-08-03T05:54:33;98767.88;;;17.97;nan
55217;BME280;41086;46.736;15.666;2022-08-03T05:57:19;98766.75;;;18.09;nan
55217;BME280;41086;46.736;15.666;2022-08-03T05:59:46;98769.53;;;18.17;nan
55217;BME280;41086;46.736;15.666;2022-08-03T06:02:24;98777.69;;;18.35;nan
55217;BME280;41086;46.736;15.666;2022-08-03T06:04:50;98778.84;;;18.50;nan
55217;BME280;41086;46.736;15.666;2022-08-03T06:07:17;98779.81;;;18.59;nan
55217;BME280;41086;46.736;15.666;2022-08-03T06:09:44;98776.38;;;18.76;nan
55217;BME280;41086;46.736;15.666;2022-08-03T06:12:31;98784.81;;;18.81;nan
55217;BME280;41086;46.736;15.666;2022-08-03T06:15:03;98787.59;;;18.90;nan
55217;BME280;41086;46.736;15.666;2022-08-03T06:17:30;98789.22;;;19.00;nan
55217;BME280;41086;46.736;15.666;2022-08-03T06:20:02;98795.22;;;19.12;nan
55217;BME280;41086;46.736;15.666;2022-08-03T06:22:29;98790.06;;;19.19;nan
55217;BME280;41086;46.736;15.666;2022-08-03T06:24:56;98785.09;;;19.24;nan
55217;BME280;41086;46.736;15.666;2022-08-03T06:27:24;98784.78;;;19.27;nan
55217;BME280;41086;46.736;15.666;2022-08-03T06:30:03;98776.50;;;19.38;nan
55217;BME280;41086;46.736;15.666;2022-08-03T06:32:29;98795.25;;;19.66;nan
55217;BME280;41086;46.736;15.666;2022-08-03T06:34:56;98793.38;;;19.84;nan
55217;BME280;41086;46.736;15.666;2022-08-03T06:37:23;98788.59;;;19.96;nan
55217;BME280;41086;46.736;15.666;2022-08-03T06:39:50;98797.78;;;20.11;nan
55217;BME280;41086;46.736;15.666;2022-08-03T06:42:17;98800.88;;;20.25;nan
55217;BME280;41086;46.736;15.666;2022-08-03T06:44:44;98803.31;;;20.36;nan
55217;BME280;41086;46.736;15.666;2022-08-03T06:47:11;98798.69;;;20.54;nan
55217;BME280;41086;46.736;15.666;2022-08-03T06:49:38;98795.59;;;20.75;nan
55217;BME280;41086;46.736;15.666;2022-08-03T06:52:06;98798.34;;;20.92;nan
55217;BME280;41086;46.736;15.666;2022-08-03T06:54:34;98795.19;;;21.05;nan
55217;BME280;41086;46.736;15.666;2022-08-03T06:57:01;98799.78;;;21.20;nan
55217;BME280;41086;46.736;15.666;2022-08-03T06:59:29;98797.28;;;21.35;nan
55217;BME280;41086;46.736;15.666;2022-08-03T07:02:16;98797.16;;;21.45;nan
55217;BME280;41086;46.736;15.666;2022-08-03T07:04:49;98803.91;;;21.65;nan
55217;BME280;41086;46.736;15.666;2022-08-03T07:07:16;98802.38;;;21.87;nan
55217;BME280;41086;46.736;15.666;2022-08-03T07:09:43;98802.22;;;21.97;nan
55217;BME280;41086;46.736;15.666;2022-08-03T07:12:22;98804.56;;;22.17;nan
55217;BME280;41086;46.736;15.666;2022-08-03T07:14:48;98811.97;;;22.23;nan
55217;BME280;41086;46.736;15.666;2022-08-03T07:17:15;98814.66;;;22.39;nan
55217;BME280;41086;46.736;15.666;2022-08-03T07:19:42;98813.19;;;22.28;nan
55217;BME280;41086;46.736;15.666;2022-08-03T07:22:09;98811.09;;;22.47;nan
55217;BME280;41086;46.736;15.666;2022-08-03T07:24:37;98811.25;;;22.53;nan
55217;BME280;41086;46.736;15.666;2022-08-03T07:27:03;98808.31;;;22.71;nan
55217;BME280;41086;46.736;15.666;2022-08-03T07:29:30;98805.19;;;22.99;nan
55217;BME280;41086;46.736;15.666;2022-08-03T07:31:59;98811.81;;;23.19;nan
55217;BME280;41086;46.736;15.666;2022-08-03T07:34:26;98817.03;;;23.29;nan
55217;BME280;41086;46.736;15.666;2022-08-03T07:36:53;98807.50;;;23.10;nan
55217;BME280;41086;46.736;15.666;2022-08-03T07:39:20;98808.06;;;22.89;nan
55217;BME280;41086;46.736;15.666;2022-08-03T07:41:47;98811.97;;;22.87;nan
55217;BME280;41086;46.736;15.666;2022-08-03T07:44:17;98807.34;;;22.95;nan
55217;BME280;41086;46.736;15.666;2022-08-03T07:46:45;98808.91;;;22.98;nan
55217;BME280;41086;46.736;15.666;2022-08-03T07:49:12;98807.03;;;22.98;nan
55217;BME280;41086;46.736;15.666;2022-08-03T07:51:39;98813.09;;;23.00;nan
55217;BME280;41086;46.736;15.666;2022-08-03T07:54:06;98798.09;;;22.98;nan
55217;BME280;41086;46.736;15.666;2022-08-03T07:56:36;98809.00;;;23.13;nan
55217;BME280;41086;46.736;15.666;2022-08-03T07:59:03;98814.88;;;23.16;nan
55217;BME280;41086;46.736;15.666;2022-08-03T08:01:30;98811.41;;;23.31;nan
55217;BME280;41086;46.736;15.666;2022-08-03T08:03:59;98806.47;;;23.42;nan
55217;BME280;41086;46.736;15.666;2022-08-03T08:06:26;98812.34;;;23.46;nan
55217;BME280;41086;46.736;15.666;2022-08-03T08:08:53;98816.19;;;23.52;nan
55217;BME280;41086;46.736;15.666;2022-08-03T08:11:20;98815.41;;;23.66;nan
55217;BME280;41086;46.736;15.666;2022-08-03T08:13:48;98821.44;;;23.76;nan
55217;BME280;41086;46.736;15.666;2022-08-03T08:16:14;98819.56;;;23.77;nan
55217;BME280;41086;46.736;15.666;2022-08-03T08:18:42;98806.41;;;23.74;nan
55217;BME280;41086;46.736;15.666;2022-08-03T08:21:08;98816.34;;;23.96;nan
55217;BME280;41086;46.736;15.666;2022-08-03T08:23:35;98812.88;;;24.10;nan
55217;BME280;41086;46.736;15.666;2022-08-03T08:26:08;98814.00;;;24.16;nan
55217;BME280;41086;46.736;15.666;2022-08-03T08:28:36;98808.97;;;24.28;nan
55217;BME280;41086;46.736;15.666;2022-08-03T08:31:03;98810.81;;;24.42;nan
55217;BME280;41086;46.736;15.666;2022-08-03T08:33:30;98812.81;;;24.78;nan
55217;BME280;41086;46.736;15.666;2022-08-03T08:36:17;98811.16;;;25.13;nan
55217;BME280;41086;46.736;15.666;2022-08-03T08:38:44;98808.66;;;25.48;nan
55217;BME280;41086;46.736;15.666;2022-08-03T08:41:12;98813.19;;;26.05;nan
55217;BME280;41086;46.736;15.666;2022-08-03T08:43:40;98802.28;;;26.55;nan
55217;BME280;41086;46.736;15.666;2022-08-03T08:46:11;98806.06;;;26.33;nan
55217;BME280;41086;46.736;15.666;2022-08-03T08:48:50;98811.22;;;26.84;nan
55217;BME280;41086;46.736;15.666;2022-08-03T08:51:19;98805.38;;;27.35;nan
55217;BME280;41086;46.736;15.666;2022-08-03T08:53:51;98813.63;;;27.75;nan
55217;BME280;41086;46.736;15.666;2022-08-03T08:56:19;98810.44;;;27.45;nan
55217;BME280;41086;46.736;15.666;2022-08-03T08:58:51;98814.66;;;27.67;nan
55217;BME280;41086;46.736;15.666;2022-08-03T09:01:19;98817.22;;;28.02;nan
55217;BME280;41086;46.736;15.666;2022-08-03T09:03:46;98814.91;;;28.12;nan
55217;BME280;41086;46.736;15.666;2022-08-03T09:06:14;98808.84;;;28.23;nan
55217;BME280;41086;46.736;15.666;2022-08-03T09:08:41;98807.56;;;28.46;nan
55217;BME280;41086;46.736;15.666;2022-08-03T09:11:08;98806.28;;;28.55;nan
55217;BME280;41086;46.736;15.666;2022-08-03T09:13:35;98806.41;;;28.87;nan
55217;BME280;41086;46.736;15.666;2022-08-03T09:16:20;98809.44;;;29.17;nan
55217;BME280;41086;46.736;15.666;2022-08-03T09:18:49;98807.66;;;29.43;nan
55217;BME280;41086;46.736;15.666;2022-08-03T09:21:27;98804.06;;;29.80;nan
55217;BME280;41086;46.736;15.666;2022-08-03T09:23:59;98806.19;;;30.03;nan
55217;BME280;41086;46.736;15.666;2022-08-03T09:26:30;98805.09;;;30.04;nan
55217;BME280;41086;46.736;15.666;2022-08-03T09:29:01;98806.13;;;30.35;nan
55217;BME280;41086;46.736;15.666;2022-08-03T09:31:37;98796.97;;;30.66;nan
55217;BME280;41086;46.736;15.666;2022-08-03T09:34:09;98796.69;;;30.93;nan
55217;BME280;41086;46.736;15.666;2022-08-03T09:36:47;98799.91;;;31.20;nan
55217;BME280;41086;46.736;15.666;2022-08-03T09:39:16;98792.97;;;31.36;nan
55217;BME280;41086;46.736;15.666;2022-08-03T09:41:48;98785.81;;;31.35;nan
55217;BME280;41086;46.736;15.666;2022-08-03T09:44:41;98788.50;;;31.42;nan
55217;BME280;41086;46.736;15.666;2022-08-03T09:47:09;98786.66;;;31.66;nan
55217;BME280;41086;46.736;15.666;2022-08-03T09:49:41;98779.97;;;31.62;nan
55217;BME280;41086;46.736;15.666;2022-08-03T09:52:16;98777.97;;;31.69;nan
55217;BME280;41086;46.736;15.666;2022-08-03T09:55:12;98778.59;;;31.83;nan
55217;BME280;41086;46.736;15.666;2022-08-03T09:57:49;98781.44;;;31.76;nan
55217;BME280;41086;46.736;15.666;2022-08-03T10:00:16;98774.06;;;31.88;nan
55217;BME280;41086;46.736;15.666;2022-08-03T10:02:43;98771.97;;;32.26;nan
55217;BME280;41086;46.736;15.666;2022-08-03T10:05:11;98766.75;;;32.36;nan
55217;BME280;41086;46.736;15.666;2022-08-03T10:07:47;98759.81;;;32.45;nan
55217;BME280;41086;46.736;15.666;2022-08-03T10:10:17;98767.91;;;32.63;nan
55217;BME280;41086;46.736;15.666;2022-08-03T10:12:58;98755.53;;;32.61;nan
55217;BME280;41086;46.736;15.666;2022-08-03T10:15:26;98760.47;;;32.87;nan
55217;BME280;41086;46.736;15.666;2022-08-03T10:18:12;98752.44;;;33.09;nan
55217;BME280;41086;46.736;15.666;2022-08-03T10:20:48;98757.47;;;33.01;nan
55217;BME280;41086;46.736;15.666;2022-08-03T10:23:16;98759.63;;;32.87;nan
55217;BME280;41086;46.736;15.666;2022-08-03T10:25:52;98749.28;;;32.77;nan
55217;BME280;41086;46.736;15.666;2022-08-03T10:28:21;98750.38;;;32.76;nan
55217;BME280;41086;46.736;15.666;2022-08-03T10:30:50;98747.91;;;32.92;nan
55217;BME280;41086;46.736;15.666;2022-08-03T10:33:27;98753.88;;;33.00;nan
55217;BME280;41086;46.736;15.666;2022-08-03T10:36:14;98753.41;;;32.92;nan
55217;BME280;41086;46.736;15.666;2022-08-03T10:38:44;98747.53;;;33.12;nan
55217;BME280;41086;46.736;15.666;2022-08-03T10:41:15;98739.75;;;33.37;nan
55217;BME280;41086;46.736;15.666;2022-08-03T10:43:55;98741.31;;;33.62;nan
55217;BME280;41086;46.736;15.666;2022-08-03T10:46:24;98731.31;;;33.72;nan
55217;BME280;41086;46.736;15.666;2022-08-03T10:48:52;98730.41;;;33.84;nan
55217;BME280;41086;46.736;15.666;2022-08-03T10:51:20;98731.06;;;33.91;nan
55217;BME280;41086;46.736;15.666;2022-08-03T10:53:48;98729.81;;;33.98;nan
55217;BME280;41086;46.736;15.666;2022-08-03T11:02:14;98725.38;;;34.31;nan
55217;BME280;41086;46.736;15.666;2022-08-03T11:04:42;98729.34;;;34.40;nan
55217;BME280;41086;46.736;15.666;2022-08-03T11:07:22;98729.56;;;34.56;nan
55217;BME280;41086;46.736;15.666;2022-08-03T11:09:51;98723.00;;;34.57;nan
55217;BME280;41086;46.736;15.666;2022-08-03T11:15:03;98719.63;;;34.72;nan
55217;BME280;41086;46.736;15.666;2022-08-03T11:17:32;98723.38;;;34.66;nan
55217;BME280;41086;46.736;15.666;2022-08-03T11:20:12;98717.59;;;34.89;nan
55217;BME280;41086;46.736;15.666;2022-08-03T11:22:49;98720.22;;;34.79;nan
55217;BME280;41086;46.736;15.666;2022-08-03T11:25:17;98717.28;;;34.63;nan
55217;BME280;41086;46.736;15.666;2022-08-03T11:28:26;98707.19;;;34.30;nan
55217;BME280;41086;46.736;15.666;2022-08-03T11:31:11;98707.72;;;34.49;nan
55217;BME280;41086;46.736;15.666;2022-08-03T11:34:08;98700.78;;;34.63;nan
55217;BME280;41086;46.736;15.666;2022-08-03T11:37:39;98707.47;;;34.95;nan
55217;BME280;41086;46.736;15.666;2022-08-03T11:39:45;98711.31;;;35.16;nan
55217;BME280;41086;46.736;15.666;2022-08-03T11:44:53;98702.88;;;35.27;nan
55217;BME280;41086;46.736;15.666;2022-08-03T11:47:21;98700.31;;;34.94;nan
55217;BME280;41086;46.736;15.666;2022-08-03T11:49:50;98690.06;;;34.89;nan
55217;BME280;41086;46.736;15.666;2022-08-03T11:52:19;98689.03;;;34.29;nan
55217;BME280;41086;46.736;15.666;2022-08-03T11:54:53;98686.00;;;34.09;nan
55217;BME280;41086;46.736;15.666;2022-08-03T12:00:24;98678.56;;;34.70;nan
55217;BME280;41086;46.736;15.666;2022-08-03T12:02:55;98675.63;;;35.04;nan
55217;BME280;41086;46.736;15.666;2022-08-03T12:05:33;98678.69;;;35.29;nan
55217;BME280;41086;46.736;15.666;2022-08-03T12:08:00;98683.03;;;35.25;nan
55217;BME280;41086;46.736;15.666;2022-08-03T12:10:30;98674.69;;;35.47;nan
55217;BME280;41086;46.736;15.666;2022-08-03T12:12:58;98685.03;;;35.62;nan
55217;BME280;41086;46.736;15.666;2022-08-03T12:15:28;98682.75;;;35.86;nan
55217;BME280;41086;46.736;15.666;2022-08-03T12:17:56;98669.84;;;35.97;nan
55217;BME280;41086;46.736;15.666;2022-08-03T12:20:27;98668.72;;;35.28;nan
55217;BME280;41086;46.736;15.666;2022-08-03T12:23:04;98670.91;;;34.72;nan
55217;BME280;41086;46.736;15.666;2022-08-03T12:25:32;98659.50;;;34.91;nan
55217;BME280;41086;46.736;15.666;2022-08-03T12:28:10;98664.28;;;35.22;nan
55217;BME280;41086;46.736;15.666;2022-08-03T12:31:05;98662.75;;;34.60;nan
55217;BME280;41086;46.736;15.666;2022-08-03T12:33:53;98669.53;;;34.53;nan
55217;BME280;41086;46.736;15.666;2022-08-03T12:36:20;98658.75;;;34.95;nan
55217;BME280;41086;46.736;15.666;2022-08-03T12:38:56;98654.84;;;35.13;nan
55217;BME280;41086;46.736;15.666;2022-08-03T12:41:28;98653.97;;;35.40;nan
55217;BME280;41086;46.736;15.666;2022-08-03T12:43:56;98647.41;;;35.46;nan
55217;BME280;41086;46.736;15.666;2022-08-03T12:46:32;98652.50;;;35.59;nan
55217;BME280;41086;46.736;15.666;2022-08-03T12:49:10;98644.75;;;35.56;nan
55217;BME280;41086;46.736;15.666;2022-08-03T12:54:19;98654.34;;;35.86;nan
55217;BME280;41086;46.736;15.666;2022-08-03T12:59:32;98636.63;;;36.19;nan
55217;BME280;41086;46.736;15.666;2022-08-03T13:02:04;98615.53;;;35.98;nan
55217;BME280;41086;46.736;15.666;2022-08-03T13:04:35;98637.38;;;35.62;nan
55217;BME280;41086;46.736;15.666;2022-08-03T13:07:04;98645.00;;;35.22;nan
55217;BME280;41086;46.736;15.666;2022-08-03T13:09:47;98634.13;;;35.38;nan
55217;BME280;41086;46.736;15.666;2022-08-03T13:12:18;98638.00;;;35.42;nan
55217;BME280;41086;46.736;15.666;2022-08-03T13:14:52;98631.56;;;35.63;nan
55217;BME280;41086;46.736;15.666;2022-08-03T13:17:19;98624.81;;;35.81;nan
55217;BME280;41086;46.736;15.666;2022-08-03T13:19:47;98625.88;;;35.80;nan
55217;BME280;41086;46.736;15.666;2022-08-03T13:22:19;98629.13;;;36.09;nan
55217;BME280;41086;46.736;15.666;2022-08-03T13:24:51;98624.78;;;36.24;nan
55217;BME280;41086;46.736;15.666;2022-08-03T13:27:18;98626.25;;;36.47;nan
55217;BME280;41086;46.736;15.666;2022-08-03T13:30:07;98623.81;;;36.55;nan
55217;BME280;41086;46.736;15.666;2022-08-03T13:32:34;98608.13;;;36.66;nan
55217;BME280;41086;46.736;15.666;2022-08-03T13:35:02;98620.16;;;36.39;nan
55217;BME280;41086;46.736;15.666;2022-08-03T13:37:29;98610.81;;;36.46;nan
55217;BME280;41086;46.736;15.666;2022-08-03T13:39:58;98612.03;;;36.12;nan
55217;BME280;41086;46.736;15.666;2022-08-03T13:42:32;98598.16;;;35.97;nan
55217;BME280;41086;46.736;15.666;2022-08-03T13:45:01;98609.31;;;36.17;nan
55217;BME280;41086;46.736;15.666;2022-08-03T13:47:28;98601.38;;;36.36;nan
55217;BME280;41086;46.736;15.666;2022-08-03T13:49:55;98603.09;;;36.53;nan
55217;BME280;41086;46.736;15.666;2022-08-03T13:52:29;98597.09;;;36.71;nan
55217;BME280;41086;46.736;15.666;2022-08-03T13:54:56;98595.47;;;36.75;nan
55217;BME280;41086;46.736;15.666;2022-08-03T13:57:23;98589.88;;;36.55;nan
55217;BME280;41086;46.736;15.666;2022-08-03T14:00:10;98595.41;;;36.60;nan
55217;BME280;41086;46.736;15.666;2022-08-03T14:02:37;98588.19;;;36.49;nan